Vliegveldwaarnemingen Nederland - (AUTO) METAR

Luchtvaartmeteorologische informatie voor operationeel gebruik en vluchtvoorbereiding is beschikbaar op www.luchtvaartmeteo.nl.

ZCZC
SA251955 EHFS     VLISSINGEN AWS   NLD   8 m.
METAR EHFS 251955Z AUTO 22024KT 9999 OVC036/// 08/04 Q1013=

ZCZC
SA252025 EHKD     DE KOOY/DE KOOY   NLD   1 m.
METAR EHKD 252025Z AUTO 22022G33KT 7000 -RA SCT015CB BKN019///
OVC025/// 07/06 Q1009 RERA REDZ WHT=

ZCZC
SA252025 EHFD     F3-FB-1   NLD   50 m.
METAR EHFD 252025Z AUTO 24034KT 8000 FEW006/// SCT009/// BKN011///
07/06 Q1002=

ZCZC
SA252025 EHAM     AMSTERDAM/SCHIPHOL   NLD   -3 m.
METAR EHAM 252025Z 21018KT 9999 -RADZ BKN025 OVC030 08/05 Q1011 TEMPO
7000=

ZCZC
SA252025 EHVL     VLIELAND   NLD   10 m.
METAR EHVL 252025Z AUTO 22029KT 6000 DZ FEW010 FEW015CB OVC032 07/06
Q1008 WHT=

ZCZC
SA252025 EHJR     K13-A   NLD   37 m.
METAR EHJR 252025Z NIL=

ZCZC
SA252025 EHLW     LEEUWARDEN/LEEUWARDEN   NLD   1 m.
METAR EHLW 252025Z AUTO 23017KT 9000 -RADZ FEW013 FEW015CB OVC016
07/06 Q1009 RERA REDZ WHT=

ZCZC
SA252025 EHDL     ARNHEM/DEELEN   NLD   48 m.
METAR EHDL 252025Z AUTO 21014KT 170V260 9999 OVC035 08/03 Q1013 BLU=

ZCZC
SA252025 EHGG     GRONINGEN/EELDE   NLD   5 m.
METAR EHGG 252025Z AUTO 22017KT 190V250 9999 OVC019 08/04 Q1010 TEMPO
7000 RA=

ZCZC
SA252025 EHSC     LICHTEILAND GOEREE   NLD   22 m.
METAR EHSC 252025Z NIL=

ZCZC
SA252025 EHSA     EURO PLATFORM   NLD   19 m.
METAR EHSA 252025Z NIL=

ZCZC
SA252025 EHWO     WOENSDRECHT/WOENSDRECHT   NLD   19 m.
METAR EHWO 252025Z AUTO 21011KT 190V250 9999 OVC036 09/03 Q1013 BLU=

ZCZC
SA252025 EHRD     ROTTERDAM/THE HAGUE AIRPORT   NLD   -5 m.
METAR EHRD 252025Z AUTO 21017KT 180V240 9999 BKN029 BKN033 OVC037
09/04 Q1012 TEMPO 7000=

ZCZC
SA252025 EHGR     GILZE-RIJEN/GILZE-RIJEN   NLD   14 m.
METAR EHGR 252025Z AUTO 20011KT 180V240 9999 BKN036 OVC041 08/03
Q1013 BLU=

ZCZC
SA252025 EHEH     EINDHOVEN/EINDHOVEN   NLD   22 m.
METAR EHEH 252025Z AUTO 20013KT 9999 OVC043 08/02 Q1014
BLU 21012KT 9999 BKN035=

ZCZC
SA252025 EHVK     VOLKEL/VOLKEL   NLD   21 m.
METAR EHVK 252025Z AUTO 21013KT 160V240 9999 OVC043 07/02 Q1013 BLU=

ZCZC
SA252025 EHBK     MAASTRICHT/MAASTRICHT-AACHEN   NLD   114 m.
METAR EHBK 252025Z AUTO 21016KT 9999 NSC 06/01 Q1016 NOSIG=

ZCZC
SA252025 EHFZ     F16-A   NLD   43 m.
METAR EHFZ 252025Z AUTO 22032KT 8000 FEW008 SCT017 BKN021 07/06
Q1004=

ZCZC
SA252025 EHKV     K14-FA-1C   NLD   41 m.
METAR EHKV 252025Z AUTO 21035KT 9000 FEW009 BKN038 BKN043 08/06
Q1007=

ZCZC
SA252025 EHMG     L9-FF-1   NLD   44 m.
METAR EHMG 252025Z AUTO 23039KT 6000 FEW006 SCT007 BKN010 07/06
Q1006=

ZCZC
SA252025 EHMA     AWG-1   NLD   40 m.
METAR EHMA 252025Z AUTO 22026KT 6000 -RA BKN010 OVC012 07/05 Q1008=

ZCZC
SA252025 EHDV     D15-FA-1   NLD   42 m.
METAR EHDV 252025Z AUTO 23026KT 9999 BKN022/// BKN028/// OVC049///
08/06 Q1003=

ZCZC
SA252025 EHAK     A12-CPP   NLD   48 m.
METAR EHAK 252025Z AUTO 23030KT 9999 BKN026/// OVC030/// 07/06 Q1001=

ZCZC
SA252025 EHQE     HOORN-A   NLD   50 m.
METAR EHQE 252025Z AUTO ///33KT 6000 DZRA FEW009 SCT012 FEW015CB
BKN036 08/06 Q1008 REDZ=

ZCZC
SA252025 EHJA     J6-A   NLD   45 m.
METAR EHJA 252025Z AUTO 21033KT //// // FEW018/// SCT024/// BKN032///
07/07 Q1005=

ZCZC
SA252025 EHPG     P11-B   NLD   41 m.
METAR EHPG 252025Z AUTO 20036KT 170V230 9000 FEW015CB BKN048 08/06
Q1008=

ZCZC
SA252025 EHHW     BUITENGAATS/BG-OHVS2      42 m.
METAR EHHW 252025Z AUTO 24033KT 5000 -RA FEW004/// SCT006///
BKN007/// 06/05 Q1007 RERA REDZ=

25/02/2017 21.30 uur LT